Worden, MT (59088)

11:48 PM MDT on July 23, 2016 (GMT -0600)
MesoWest | | Change Station

Elev 2998 ft 45.92 °N, 108.25 °W | Updated 37 minutes ago

Mostly Cloudy
Mostly Cloudy
69 °F
Feels Like 69 °F
N
0
Wind Variable Wind from North
Gusts 0.0 mph

Today
High -- | Low -- °F
--% Chance of Precip.
Yesterday
High -- | Low -- °F
Precip. -- in
Pressure 30.00 in
Visibility 10.0 miles
Clouds Few 9500 ft
Mostly Cloudy 14000 ft
Dew Point 48 °F
Humidity 47%
Rainfall in
Snow Depth Not available.
5:45 AM 8:52 PM
Waning Gibbous, 79% visible
METAR KBIL 240453Z 00000KT 10SM FEW095 BKN140 22/08 A3009 RMK AO2 RAE09 SLP157 P0000 T02220078
Pressure 30.00 in
Visibility 10.0 miles
Clouds Few 9500 ft
Mostly Cloudy 14000 ft
Dew Point 48 °F
Humidity 47%
Rainfall in
Snow Depth Not available.
5:45 AM 8:52 PM
Waning Gibbous, 79% visible
METAR KBIL 240453Z 00000KT 10SM FEW095 BKN140 22/08 A3009 RMK AO2 RAE09 SLP157 P0000 T02220078

10-Day Weather Forecast

Almanac

Astronomy

Jul. 23, 2016 Rise Set
Actual Time
Civil Twilight
Nautical Twilight
Astronomical Twilight
Moon
Length of Visible Light
Length of Day
Tomorrow will be .
, % of the Moon is Illuminated

Today's Extremes

State Highs State Lows

Community

WunderPhotos

Upload Photos

1,927,039 photos uploaded!

WunderBlog® & News

Nearby

Air Quality

  Air Quality AQ Index Pollutant
Not available.

Snow Depth

Station Depth Elevation

Earthquake Activity

City Distance Mag. Time & Date
Minimum magnitude displayed is 2.5.

Coastal Water Temperatures

Place Temperature

Stations

Nearby Weather Stations

Station Location Temp. Windchill Dew Point Humidity Wind Precip. Elev Updated Type
                   

Watches & Warnings

There are currently no watches in effect.